Tekakwitha, South Dakota
Current Conditions -  °F | °C
As of 12:16 AM on Wednesday 22 Oct 2014 (Local Time) from KETH Reporting Station
Clear Clear  
Wind Chill: 11°   Ceiling: Unl
Heat Index: 11°   Visibility: 10mi
Dew Point:   Wind: 21mph
Humidity: 62%   Direction: 140°SE
Pressure: 29.97"   Gusts: NA
Location:  45.7041°N, 96.9842°W
Report Text: KETH 220516Z AUTO 14018KT 10SM CLR 11/04 A2997 RMK AO2
Loading
Personal Weather Stations






























Interactive Weather Map
Tropical Storm Tracking
New forecast layout! Learn more

10-Day Weather Forecast

Advertisements
Track Severe Weather on mobile